sensor_id;sensor_type;location;lat;lon;timestamp;P1;durP1;ratioP1;P2;durP2;ratioP2
4375;SDS011;2202;50.866;12.750;2024-03-22T00:02:01;23.00;;;15.13;;
4375;SDS011;2202;50.866;12.750;2024-03-22T00:04:28;23.97;;;15.03;;
4375;SDS011;2202;50.866;12.750;2024-03-22T00:06:55;22.47;;;13.60;;
4375;SDS011;2202;50.866;12.750;2024-03-22T00:09:22;25.60;;;15.87;;
4375;SDS011;2202;50.866;12.750;2024-03-22T00:11:48;22.17;;;14.17;;
4375;SDS011;2202;50.866;12.750;2024-03-22T00:14:15;25.43;;;13.90;;
4375;SDS011;2202;50.866;12.750;2024-03-22T00:16:42;21.03;;;13.70;;
4375;SDS011;2202;50.866;12.750;2024-03-22T00:19:08;25.83;;;14.53;;
4375;SDS011;2202;50.866;12.750;2024-03-22T00:21:34;28.60;;;13.80;;
4375;SDS011;2202;50.866;12.750;2024-03-22T00:24:02;20.73;;;14.03;;
4375;SDS011;2202;50.866;12.750;2024-03-22T00:26:28;17.93;;;12.33;;
4375;SDS011;2202;50.866;12.750;2024-03-22T00:28:55;26.53;;;14.33;;
4375;SDS011;2202;50.866;12.750;2024-03-22T00:31:23;23.43;;;15.47;;
4375;SDS011;2202;50.866;12.750;2024-03-22T00:33:50;19.20;;;13.00;;
4375;SDS011;2202;50.866;12.750;2024-03-22T00:36:15;23.90;;;14.37;;
4375;SDS011;2202;50.866;12.750;2024-03-22T00:38:42;19.50;;;13.80;;
4375;SDS011;2202;50.866;12.750;2024-03-22T00:41:09;21.40;;;13.77;;
4375;SDS011;2202;50.866;12.750;2024-03-22T00:43:36;18.00;;;12.07;;
4375;SDS011;2202;50.866;12.750;2024-03-22T00:46:02;20.37;;;14.37;;
4375;SDS011;2202;50.866;12.750;2024-03-22T00:48:29;18.57;;;12.30;;
4375;SDS011;2202;50.866;12.750;2024-03-22T00:50:54;20.70;;;13.40;;
4375;SDS011;2202;50.866;12.750;2024-03-22T00:53:21;15.63;;;11.50;;
4375;SDS011;2202;50.866;12.750;2024-03-22T00:55:47;12.57;;;9.70;;
4375;SDS011;2202;50.866;12.750;2024-03-22T00:58:17;14.70;;;10.63;;
4375;SDS011;2202;50.866;12.750;2024-03-22T01:00:43;12.90;;;9.80;;
4375;SDS011;2202;50.866;12.750;2024-03-22T01:03:10;11.87;;;9.67;;
4375;SDS011;2202;50.866;12.750;2024-03-22T01:05:36;14.50;;;11.60;;
4375;SDS011;2202;50.866;12.750;2024-03-22T01:08:03;14.10;;;11.60;;
4375;SDS011;2202;50.866;12.750;2024-03-22T01:10:30;23.10;;;11.97;;
4375;SDS011;2202;50.866;12.750;2024-03-22T01:12:59;17.87;;;11.27;;
4375;SDS011;2202;50.866;12.750;2024-03-22T01:15:27;19.40;;;12.77;;
4375;SDS011;2202;50.866;12.750;2024-03-22T01:17:53;19.43;;;12.40;;
4375;SDS011;2202;50.866;12.750;2024-03-22T01:20:20;14.17;;;10.20;;
4375;SDS011;2202;50.866;12.750;2024-03-22T01:22:47;18.97;;;13.30;;
4375;SDS011;2202;50.866;12.750;2024-03-22T01:25:12;17.87;;;13.70;;
4375;SDS011;2202;50.866;12.750;2024-03-22T01:27:39;18.80;;;13.40;;
4375;SDS011;2202;50.866;12.750;2024-03-22T01:30:05;16.00;;;12.17;;
4375;SDS011;2202;50.866;12.750;2024-03-22T01:32:34;18.67;;;11.37;;
4375;SDS011;2202;50.866;12.750;2024-03-22T01:35:00;19.37;;;11.90;;
4375;SDS011;2202;50.866;12.750;2024-03-22T01:37:27;17.73;;;11.87;;
4375;SDS011;2202;50.866;12.750;2024-03-22T01:39:53;18.40;;;11.93;;
4375;SDS011;2202;50.866;12.750;2024-03-22T01:42:19;18.93;;;11.97;;
4375;SDS011;2202;50.866;12.750;2024-03-22T01:44:45;14.87;;;10.80;;
4375;SDS011;2202;50.866;12.750;2024-03-22T01:47:12;14.63;;;11.80;;
4375;SDS011;2202;50.866;12.750;2024-03-22T01:49:39;16.47;;;12.00;;
4375;SDS011;2202;50.866;12.750;2024-03-22T01:52:06;20.63;;;11.40;;
4375;SDS011;2202;50.866;12.750;2024-03-22T01:54:32;14.50;;;10.53;;
4375;SDS011;2202;50.866;12.750;2024-03-22T01:56:59;13.73;;;10.40;;
4375;SDS011;2202;50.866;12.750;2024-03-22T01:59:26;15.40;;;10.43;;
4375;SDS011;2202;50.866;12.750;2024-03-22T02:01:54;14.07;;;10.60;;
4375;SDS011;2202;50.866;12.750;2024-03-22T02:04:20;14.73;;;10.87;;
4375;SDS011;2202;50.866;12.750;2024-03-22T02:06:49;14.73;;;10.53;;
4375;SDS011;2202;50.866;12.750;2024-03-22T02:09:14;17.30;;;10.93;;
4375;SDS011;2202;50.866;12.750;2024-03-22T02:11:41;19.30;;;10.10;;
4375;SDS011;2202;50.866;12.750;2024-03-22T02:14:08;17.20;;;11.90;;
4375;SDS011;2202;50.866;12.750;2024-03-22T02:16:35;17.60;;;10.90;;
4375;SDS011;2202;50.866;12.750;2024-03-22T02:19:00;12.83;;;9.87;;
4375;SDS011;2202;50.866;12.750;2024-03-22T02:21:27;16.83;;;10.60;;
4375;SDS011;2202;50.866;12.750;2024-03-22T02:23:54;13.33;;;9.93;;
4375;SDS011;2202;50.866;12.750;2024-03-22T02:26:21;15.90;;;11.40;;
4375;SDS011;2202;50.866;12.750;2024-03-22T02:28:47;19.47;;;11.60;;
4375;SDS011;2202;50.866;12.750;2024-03-22T02:31:13;15.60;;;11.27;;
4375;SDS011;2202;50.866;12.750;2024-03-22T02:33:40;15.67;;;11.03;;
4375;SDS011;2202;50.866;12.750;2024-03-22T02:36:06;19.03;;;12.03;;
4375;SDS011;2202;50.866;12.750;2024-03-22T02:38:32;15.37;;;11.93;;
4375;SDS011;2202;50.866;12.750;2024-03-22T02:41:02;13.57;;;10.97;;
4375;SDS011;2202;50.866;12.750;2024-03-22T02:43:28;14.50;;;11.27;;
4375;SDS011;2202;50.866;12.750;2024-03-22T02:45:54;20.50;;;11.20;;
4375;SDS011;2202;50.866;12.750;2024-03-22T02:48:20;15.90;;;10.73;;
4375;SDS011;2202;50.866;12.750;2024-03-22T02:50:47;16.87;;;10.20;;
4375;SDS011;2202;50.866;12.750;2024-03-22T02:53:13;14.13;;;9.90;;
4375;SDS011;2202;50.866;12.750;2024-03-22T02:55:39;16.50;;;10.27;;
4375;SDS011;2202;50.866;12.750;2024-03-22T02:58:07;17.67;;;10.90;;
4375;SDS011;2202;50.866;12.750;2024-03-22T03:00:35;15.97;;;10.53;;
4375;SDS011;2202;50.866;12.750;2024-03-22T03:03:02;14.37;;;10.17;;
4375;SDS011;2202;50.866;12.750;2024-03-22T03:05:29;14.30;;;11.10;;
4375;SDS011;2202;50.866;12.750;2024-03-22T03:07:55;15.07;;;10.60;;
4375;SDS011;2202;50.866;12.750;2024-03-22T03:10:21;17.80;;;10.53;;
4375;SDS011;2202;50.866;12.750;2024-03-22T03:12:47;19.43;;;10.73;;
4375;SDS011;2202;50.866;12.750;2024-03-22T03:15:18;11.03;;;9.43;;
4375;SDS011;2202;50.866;12.750;2024-03-22T03:17:44;13.67;;;9.10;;
4375;SDS011;2202;50.866;12.750;2024-03-22T03:20:11;18.43;;;9.97;;
4375;SDS011;2202;50.866;12.750;2024-03-22T03:22:38;17.47;;;11.80;;
4375;SDS011;2202;50.866;12.750;2024-03-22T03:25:05;12.20;;;9.70;;
4375;SDS011;2202;50.866;12.750;2024-03-22T03:27:32;12.70;;;9.87;;
4375;SDS011;2202;50.866;12.750;2024-03-22T03:29:58;16.63;;;10.00;;
4375;SDS011;2202;50.866;12.750;2024-03-22T03:32:26;13.73;;;10.63;;
4375;SDS011;2202;50.866;12.750;2024-03-22T03:34:52;16.43;;;10.37;;
4375;SDS011;2202;50.866;12.750;2024-03-22T03:37:18;13.03;;;9.00;;
4375;SDS011;2202;50.866;12.750;2024-03-22T03:39:45;17.67;;;9.40;;
4375;SDS011;2202;50.866;12.750;2024-03-22T03:42:11;12.30;;;10.00;;
4375;SDS011;2202;50.866;12.750;2024-03-22T03:44:37;12.40;;;9.10;;
4375;SDS011;2202;50.866;12.750;2024-03-22T03:47:03;13.27;;;9.00;;
4375;SDS011;2202;50.866;12.750;2024-03-22T03:49:32;14.70;;;10.40;;
4375;SDS011;2202;50.866;12.750;2024-03-22T03:51:58;12.50;;;8.97;;
4375;SDS011;2202;50.866;12.750;2024-03-22T03:54:24;11.30;;;8.90;;
4375;SDS011;2202;50.866;12.750;2024-03-22T03:56:50;15.60;;;9.93;;
4375;SDS011;2202;50.866;12.750;2024-03-22T03:59:17;11.80;;;9.80;;
4375;SDS011;2202;50.866;12.750;2024-03-22T04:01:43;10.37;;;9.13;;
4375;SDS011;2202;50.866;12.750;2024-03-22T04:04:10;17.97;;;10.00;;
4375;SDS011;2202;50.866;12.750;2024-03-22T04:06:37;21.67;;;10.33;;
4375;SDS011;2202;50.866;12.750;2024-03-22T04:09:04;13.00;;;9.80;;
4375;SDS011;2202;50.866;12.750;2024-03-22T04:11:30;12.27;;;9.10;;
4375;SDS011;2202;50.866;12.750;2024-03-22T04:13:57;12.33;;;9.70;;
4375;SDS011;2202;50.866;12.750;2024-03-22T04:16:22;16.40;;;11.17;;
4375;SDS011;2202;50.866;12.750;2024-03-22T04:18:51;13.17;;;9.37;;
4375;SDS011;2202;50.866;12.750;2024-03-22T04:21:18;12.07;;;8.93;;
4375;SDS011;2202;50.866;12.750;2024-03-22T04:23:46;8.77;;;7.70;;
4375;SDS011;2202;50.866;12.750;2024-03-22T04:26:11;18.13;;;10.13;;
4375;SDS011;2202;50.866;12.750;2024-03-22T04:28:38;14.53;;;9.60;;
4375;SDS011;2202;50.866;12.750;2024-03-22T04:31:04;13.03;;;8.77;;
4375;SDS011;2202;50.866;12.750;2024-03-22T04:33:34;15.03;;;9.43;;
4375;SDS011;2202;50.866;12.750;2024-03-22T04:36:00;17.73;;;10.30;;
4375;SDS011;2202;50.866;12.750;2024-03-22T04:38:27;13.77;;;8.57;;
4375;SDS011;2202;50.866;12.750;2024-03-22T04:40:56;16.47;;;9.10;;
4375;SDS011;2202;50.866;12.750;2024-03-22T04:43:22;15.00;;;8.37;;
4375;SDS011;2202;50.866;12.750;2024-03-22T04:45:50;13.60;;;8.53;;
4375;SDS011;2202;50.866;12.750;2024-03-22T04:48:18;11.63;;;9.00;;
4375;SDS011;2202;50.866;12.750;2024-03-22T04:50:46;15.87;;;9.80;;
4375;SDS011;2202;50.866;12.750;2024-03-22T04:53:15;11.17;;;8.63;;
4375;SDS011;2202;50.866;12.750;2024-03-22T04:55:42;12.10;;;9.23;;
4375;SDS011;2202;50.866;12.750;2024-03-22T04:58:11;17.70;;;10.80;;
4375;SDS011;2202;50.866;12.750;2024-03-22T05:00:38;15.43;;;11.53;;
4375;SDS011;2202;50.866;12.750;2024-03-22T05:03:05;15.67;;;11.40;;
4375;SDS011;2202;50.866;12.750;2024-03-22T05:05:30;13.37;;;10.13;;
4375;SDS011;2202;50.866;12.750;2024-03-22T05:08:00;13.30;;;9.60;;
4375;SDS011;2202;50.866;12.750;2024-03-22T05:10:26;17.00;;;11.43;;
4375;SDS011;2202;50.866;12.750;2024-03-22T05:12:53;17.17;;;12.13;;
4375;SDS011;2202;50.866;12.750;2024-03-22T05:15:20;15.30;;;10.30;;
4375;SDS011;2202;50.866;12.750;2024-03-22T05:17:47;13.17;;;9.73;;
4375;SDS011;2202;50.866;12.750;2024-03-22T05:22:49;14.93;;;11.03;;
4375;SDS011;2202;50.866;12.750;2024-03-22T05:25:16;14.63;;;10.70;;
4375;SDS011;2202;50.866;12.750;2024-03-22T05:27:42;14.93;;;9.57;;
4375;SDS011;2202;50.866;12.750;2024-03-22T05:30:09;12.87;;;9.93;;
4375;SDS011;2202;50.866;12.750;2024-03-22T05:32:37;13.90;;;9.23;;
4375;SDS011;2202;50.866;12.750;2024-03-22T05:35:05;9.67;;;8.40;;
4375;SDS011;2202;50.866;12.750;2024-03-22T05:37:31;17.60;;;10.00;;
4375;SDS011;2202;50.866;12.750;2024-03-22T05:39:59;14.80;;;10.77;;
4375;SDS011;2202;50.866;12.750;2024-03-22T05:42:25;12.37;;;9.63;;
4375;SDS011;2202;50.866;12.750;2024-03-22T05:44:52;13.43;;;10.83;;
4375;SDS011;2202;50.866;12.750;2024-03-22T05:47:18;15.03;;;9.60;;
4375;SDS011;2202;50.866;12.750;2024-03-22T05:49:46;16.10;;;10.33;;
4375;SDS011;2202;50.866;12.750;2024-03-22T05:52:13;15.53;;;10.50;;
4375;SDS011;2202;50.866;12.750;2024-03-22T05:54:39;14.40;;;8.77;;
4375;SDS011;2202;50.866;12.750;2024-03-22T05:57:05;15.67;;;10.10;;
4375;SDS011;2202;50.866;12.750;2024-03-22T05:59:32;13.73;;;10.20;;
4375;SDS011;2202;50.866;12.750;2024-03-22T06:01:59;18.23;;;10.40;;
4375;SDS011;2202;50.866;12.750;2024-03-22T06:04:25;16.80;;;10.50;;
4375;SDS011;2202;50.866;12.750;2024-03-22T06:06:54;16.33;;;10.37;;
4375;SDS011;2202;50.866;12.750;2024-03-22T06:09:19;12.93;;;10.17;;
4375;SDS011;2202;50.866;12.750;2024-03-22T06:11:59;15.20;;;10.30;;
4375;SDS011;2202;50.866;12.750;2024-03-22T06:14:25;17.87;;;11.10;;
4375;SDS011;2202;50.866;12.750;2024-03-22T06:16:51;13.67;;;9.97;;
4375;SDS011;2202;50.866;12.750;2024-03-22T06:19:17;12.57;;;9.37;;
4375;SDS011;2202;50.866;12.750;2024-03-22T06:21:44;15.23;;;10.20;;
4375;SDS011;2202;50.866;12.750;2024-03-22T06:24:11;16.40;;;11.10;;
4375;SDS011;2202;50.866;12.750;2024-03-22T06:26:38;14.47;;;9.77;;
4375;SDS011;2202;50.866;12.750;2024-03-22T06:29:04;14.40;;;10.00;;
4375;SDS011;2202;50.866;12.750;2024-03-22T06:31:31;15.47;;;9.90;;
4375;SDS011;2202;50.866;12.750;2024-03-22T06:33:57;13.17;;;9.57;;
4375;SDS011;2202;50.866;12.750;2024-03-22T06:36:27;15.80;;;11.40;;
4375;SDS011;2202;50.866;12.750;2024-03-22T06:38:53;15.13;;;10.07;;
4375;SDS011;2202;50.866;12.750;2024-03-22T06:41:21;14.87;;;10.43;;
4375;SDS011;2202;50.866;12.750;2024-03-22T06:43:47;12.60;;;9.10;;
4375;SDS011;2202;50.866;12.750;2024-03-22T06:46:14;22.03;;;12.20;;
4375;SDS011;2202;50.866;12.750;2024-03-22T06:48:39;13.97;;;10.40;;
4375;SDS011;2202;50.866;12.750;2024-03-22T06:51:06;12.67;;;9.40;;
4375;SDS011;2202;50.866;12.750;2024-03-22T06:53:32;13.60;;;11.10;;
4375;SDS011;2202;50.866;12.750;2024-03-22T06:55:59;16.87;;;11.47;;
4375;SDS011;2202;50.866;12.750;2024-03-22T06:58:26;22.93;;;10.90;;
4375;SDS011;2202;50.866;12.750;2024-03-22T07:00:53;15.60;;;10.73;;
4375;SDS011;2202;50.866;12.750;2024-03-22T07:03:19;15.40;;;10.37;;
4375;SDS011;2202;50.866;12.750;2024-03-22T07:05:46;13.83;;;10.20;;
4375;SDS011;2202;50.866;12.750;2024-03-22T07:08:12;14.03;;;9.90;;
4375;SDS011;2202;50.866;12.750;2024-03-22T07:10:39;15.43;;;11.27;;
4375;SDS011;2202;50.866;12.750;2024-03-22T07:13:05;13.20;;;9.20;;
4375;SDS011;2202;50.866;12.750;2024-03-22T07:15:34;13.87;;;9.80;;
4375;SDS011;2202;50.866;12.750;2024-03-22T07:18:03;15.20;;;9.70;;
4375;SDS011;2202;50.866;12.750;2024-03-22T07:20:34;19.30;;;11.37;;
4375;SDS011;2202;50.866;12.750;2024-03-22T07:23:00;11.07;;;8.97;;
4375;SDS011;2202;50.866;12.750;2024-03-22T07:25:29;14.97;;;9.67;;
4375;SDS011;2202;50.866;12.750;2024-03-22T07:27:55;17.50;;;10.00;;
4375;SDS011;2202;50.866;12.750;2024-03-22T07:30:21;11.50;;;8.77;;
4375;SDS011;2202;50.866;12.750;2024-03-22T07:32:49;12.73;;;9.73;;
4375;SDS011;2202;50.866;12.750;2024-03-22T07:35:16;11.13;;;8.60;;
4375;SDS011;2202;50.866;12.750;2024-03-22T07:37:43;14.73;;;8.87;;
4375;SDS011;2202;50.866;12.750;2024-03-22T07:40:10;15.73;;;9.80;;
4375;SDS011;2202;50.866;12.750;2024-03-22T07:42:36;15.10;;;9.90;;
4375;SDS011;2202;50.866;12.750;2024-03-22T07:45:03;11.70;;;8.83;;
4375;SDS011;2202;50.866;12.750;2024-03-22T07:47:29;13.17;;;9.40;;
4375;SDS011;2202;50.866;12.750;2024-03-22T07:49:58;12.63;;;8.83;;
4375;SDS011;2202;50.866;12.750;2024-03-22T07:52:24;15.13;;;8.90;;
4375;SDS011;2202;50.866;12.750;2024-03-22T07:54:50;15.50;;;8.60;;
4375;SDS011;2202;50.866;12.750;2024-03-22T07:57:17;13.60;;;8.80;;
4375;SDS011;2202;50.866;12.750;2024-03-22T07:59:43;20.13;;;11.20;;
4375;SDS011;2202;50.866;12.750;2024-03-22T08:02:10;14.30;;;10.77;;
4375;SDS011;2202;50.866;12.750;2024-03-22T08:04:37;13.10;;;8.67;;
4375;SDS011;2202;50.866;12.750;2024-03-22T08:07:04;13.23;;;9.17;;
4375;SDS011;2202;50.866;12.750;2024-03-22T08:09:31;11.87;;;8.43;;
4375;SDS011;2202;50.866;12.750;2024-03-22T08:11:57;15.47;;;9.43;;
4375;SDS011;2202;50.866;12.750;2024-03-22T08:14:25;13.23;;;9.73;;
4375;SDS011;2202;50.866;12.750;2024-03-22T08:16:51;13.47;;;10.37;;
4375;SDS011;2202;50.866;12.750;2024-03-22T08:19:17;14.20;;;10.50;;
4375;SDS011;2202;50.866;12.750;2024-03-22T08:21:43;14.40;;;9.90;;
4375;SDS011;2202;50.866;12.750;2024-03-22T08:24:11;15.27;;;10.00;;
4375;SDS011;2202;50.866;12.750;2024-03-22T08:26:37;13.77;;;9.77;;
4375;SDS011;2202;50.866;12.750;2024-03-22T08:29:04;13.83;;;9.47;;
4375;SDS011;2202;50.866;12.750;2024-03-22T08:31:32;14.03;;;8.47;;
4375;SDS011;2202;50.866;12.750;2024-03-22T08:33:59;10.87;;;9.00;;
4375;SDS011;2202;50.866;12.750;2024-03-22T08:36:26;15.17;;;10.10;;
4375;SDS011;2202;50.866;12.750;2024-03-22T08:38:53;15.53;;;11.23;;
4375;SDS011;2202;50.866;12.750;2024-03-22T08:41:20;15.47;;;10.17;;
4375;SDS011;2202;50.866;12.750;2024-03-22T08:43:48;15.70;;;9.33;;
4375;SDS011;2202;50.866;12.750;2024-03-22T08:46:14;15.70;;;10.60;;
4375;SDS011;2202;50.866;12.750;2024-03-22T08:48:41;11.70;;;9.33;;
4375;SDS011;2202;50.866;12.750;2024-03-22T08:51:07;14.90;;;9.90;;
4375;SDS011;2202;50.866;12.750;2024-03-22T08:53:33;14.63;;;10.83;;
4375;SDS011;2202;50.866;12.750;2024-03-22T08:56:00;16.37;;;10.47;;
4375;SDS011;2202;50.866;12.750;2024-03-22T08:58:28;18.17;;;13.70;;
4375;SDS011;2202;50.866;12.750;2024-03-22T09:00:54;19.57;;;12.90;;
4375;SDS011;2202;50.866;12.750;2024-03-22T09:03:20;16.10;;;11.50;;
4375;SDS011;2202;50.866;12.750;2024-03-22T09:05:46;16.87;;;12.23;;
4375;SDS011;2202;50.866;12.750;2024-03-22T09:08:14;16.20;;;11.30;;
4375;SDS011;2202;50.866;12.750;2024-03-22T09:10:39;15.30;;;10.50;;
4375;SDS011;2202;50.866;12.750;2024-03-22T09:13:06;16.90;;;11.30;;
4375;SDS011;2202;50.866;12.750;2024-03-22T09:15:34;18.80;;;11.63;;
4375;SDS011;2202;50.866;12.750;2024-03-22T09:18:00;17.60;;;12.13;;
4375;SDS011;2202;50.866;12.750;2024-03-22T09:20:27;22.13;;;13.30;;
4375;SDS011;2202;50.866;12.750;2024-03-22T09:22:54;18.70;;;11.83;;
4375;SDS011;2202;50.866;12.750;2024-03-22T09:25:19;20.23;;;13.43;;
4375;SDS011;2202;50.866;12.750;2024-03-22T09:27:46;21.50;;;12.73;;
4375;SDS011;2202;50.866;12.750;2024-03-22T09:30:12;19.27;;;12.70;;
4375;SDS011;2202;50.866;12.750;2024-03-22T09:32:41;23.47;;;13.20;;
4375;SDS011;2202;50.866;12.750;2024-03-22T09:35:07;18.73;;;12.57;;
4375;SDS011;2202;50.866;12.750;2024-03-22T09:37:37;18.03;;;11.87;;
4375;SDS011;2202;50.866;12.750;2024-03-22T09:40:03;29.43;;;19.13;;
4375;SDS011;2202;50.866;12.750;2024-03-22T09:42:32;18.60;;;12.00;;
4375;SDS011;2202;50.866;12.750;2024-03-22T09:44:58;23.03;;;12.90;;
4375;SDS011;2202;50.866;12.750;2024-03-22T09:47:25;22.70;;;13.80;;
4375;SDS011;2202;50.866;12.750;2024-03-22T09:49:54;17.80;;;13.07;;
4375;SDS011;2202;50.866;12.750;2024-03-22T09:52:22;15.93;;;13.03;;
4375;SDS011;2202;50.866;12.750;2024-03-22T09:54:49;22.17;;;12.33;;
4375;SDS011;2202;50.866;12.750;2024-03-22T09:57:16;20.53;;;13.60;;
4375;SDS011;2202;50.866;12.750;2024-03-22T09:59:43;17.37;;;12.73;;
4375;SDS011;2202;50.866;12.750;2024-03-22T10:02:11;21.27;;;13.40;;
4375;SDS011;2202;50.866;12.750;2024-03-22T10:04:38;24.07;;;13.07;;
4375;SDS011;2202;50.866;12.750;2024-03-22T10:07:06;19.80;;;13.73;;
4375;SDS011;2202;50.866;12.750;2024-03-22T10:09:33;19.63;;;12.07;;
4375;SDS011;2202;50.866;12.750;2024-03-22T10:12:00;18.20;;;12.80;;
4375;SDS011;2202;50.866;12.750;2024-03-22T10:14:26;19.40;;;11.43;;
4375;SDS011;2202;50.866;12.750;2024-03-22T10:16:53;19.90;;;12.70;;
4375;SDS011;2202;50.866;12.750;2024-03-22T10:19:19;22.00;;;14.20;;
4375;SDS011;2202;50.866;12.750;2024-03-22T10:21:47;19.80;;;12.50;;
4375;SDS011;2202;50.866;12.750;2024-03-22T10:24:15;18.67;;;12.37;;
4375;SDS011;2202;50.866;12.750;2024-03-22T10:26:41;16.10;;;11.53;;
4375;SDS011;2202;50.866;12.750;2024-03-22T10:29:10;21.63;;;15.17;;
4375;SDS011;2202;50.866;12.750;2024-03-22T10:31:38;17.63;;;12.13;;
4375;SDS011;2202;50.866;12.750;2024-03-22T10:34:04;19.37;;;11.70;;
4375;SDS011;2202;50.866;12.750;2024-03-22T10:36:32;15.87;;;11.77;;
4375;SDS011;2202;50.866;12.750;2024-03-22T10:38:58;19.23;;;12.80;;
4375;SDS011;2202;50.866;12.750;2024-03-22T10:41:28;17.67;;;11.90;;
4375;SDS011;2202;50.866;12.750;2024-03-22T10:43:53;18.80;;;11.13;;
4375;SDS011;2202;50.866;12.750;2024-03-22T10:46:21;17.97;;;12.30;;
4375;SDS011;2202;50.866;12.750;2024-03-22T10:48:49;17.10;;;10.70;;
4375;SDS011;2202;50.866;12.750;2024-03-22T10:51:16;17.20;;;10.77;;
4375;SDS011;2202;50.866;12.750;2024-03-22T10:53:42;18.20;;;10.70;;
4375;SDS011;2202;50.866;12.750;2024-03-22T10:56:10;16.17;;;11.03;;
4375;SDS011;2202;50.866;12.750;2024-03-22T10:58:40;18.20;;;12.13;;
4375;SDS011;2202;50.866;12.750;2024-03-22T11:01:11;18.70;;;9.97;;
4375;SDS011;2202;50.866;12.750;2024-03-22T11:03:47;16.80;;;9.93;;
4375;SDS011;2202;50.866;12.750;2024-03-22T11:06:17;17.30;;;10.47;;
4375;SDS011;2202;50.866;12.750;2024-03-22T11:08:43;15.50;;;9.80;;
4375;SDS011;2202;50.866;12.750;2024-03-22T11:11:11;15.60;;;10.27;;
4375;SDS011;2202;50.866;12.750;2024-03-22T11:13:38;15.10;;;9.53;;
4375;SDS011;2202;50.866;12.750;2024-03-22T11:16:07;17.63;;;10.93;;
4375;SDS011;2202;50.866;12.750;2024-03-22T11:18:35;16.07;;;10.47;;
4375;SDS011;2202;50.866;12.750;2024-03-22T11:21:01;17.33;;;11.20;;
4375;SDS011;2202;50.866;12.750;2024-03-22T11:23:29;17.67;;;11.70;;
4375;SDS011;2202;50.866;12.750;2024-03-22T11:29:16;16.73;;;10.93;;
4375;SDS011;2202;50.866;12.750;2024-03-22T11:31:42;18.17;;;12.03;;
4375;SDS011;2202;50.866;12.750;2024-03-22T11:34:09;18.80;;;10.47;;
4375;SDS011;2202;50.866;12.750;2024-03-22T11:36:49;20.77;;;12.67;;
4375;SDS011;2202;50.866;12.750;2024-03-22T11:39:23;17.37;;;11.90;;
4375;SDS011;2202;50.866;12.750;2024-03-22T11:42:13;21.57;;;11.87;;
4375;SDS011;2202;50.866;12.750;2024-03-22T11:44:52;19.87;;;11.87;;
4375;SDS011;2202;50.866;12.750;2024-03-22T11:53:48;17.93;;;11.77;;
4375;SDS011;2202;50.866;12.750;2024-03-22T11:56:14;16.30;;;10.67;;
4375;SDS011;2202;50.866;12.750;2024-03-22T11:58:57;20.17;;;13.10;;
4375;SDS011;2202;50.866;12.750;2024-03-22T12:01:24;16.97;;;11.83;;
4375;SDS011;2202;50.866;12.750;2024-03-22T12:03:51;19.83;;;11.93;;
4375;SDS011;2202;50.866;12.750;2024-03-22T12:06:17;15.03;;;11.63;;
4375;SDS011;2202;50.866;12.750;2024-03-22T12:08:44;14.77;;;11.53;;
4375;SDS011;2202;50.866;12.750;2024-03-22T12:11:11;17.73;;;11.90;;
4375;SDS011;2202;50.866;12.750;2024-03-22T12:13:39;21.60;;;10.23;;
4375;SDS011;2202;50.866;12.750;2024-03-22T12:16:05;19.53;;;10.87;;
4375;SDS011;2202;50.866;12.750;2024-03-22T12:18:33;14.60;;;11.13;;
4375;SDS011;2202;50.866;12.750;2024-03-22T12:20:59;17.23;;;10.43;;
4375;SDS011;2202;50.866;12.750;2024-03-22T12:23:27;15.30;;;11.50;;
4375;SDS011;2202;50.866;12.750;2024-03-22T12:25:52;17.80;;;11.90;;
4375;SDS011;2202;50.866;12.750;2024-03-22T12:28:20;18.93;;;11.90;;
4375;SDS011;2202;50.866;12.750;2024-03-22T12:30:47;21.80;;;12.73;;
4375;SDS011;2202;50.866;12.750;2024-03-22T12:33:14;17.63;;;12.23;;
4375;SDS011;2202;50.866;12.750;2024-03-22T12:35:41;17.93;;;12.30;;
4375;SDS011;2202;50.866;12.750;2024-03-22T12:38:08;16.60;;;12.07;;
4375;SDS011;2202;50.866;12.750;2024-03-22T12:40:35;18.77;;;12.60;;
4375;SDS011;2202;50.866;12.750;2024-03-22T12:43:03;15.43;;;11.10;;
4375;SDS011;2202;50.866;12.750;2024-03-22T12:45:29;18.40;;;12.70;;
4375;SDS011;2202;50.866;12.750;2024-03-22T12:47:56;18.40;;;11.80;;
4375;SDS011;2202;50.866;12.750;2024-03-22T12:50:22;16.50;;;12.90;;
4375;SDS011;2202;50.866;12.750;2024-03-22T12:52:50;18.07;;;12.63;;
4375;SDS011;2202;50.866;12.750;2024-03-22T12:55:15;17.63;;;12.23;;
4375;SDS011;2202;50.866;12.750;2024-03-22T12:57:42;22.60;;;13.20;;
4375;SDS011;2202;50.866;12.750;2024-03-22T13:00:08;20.27;;;14.93;;
4375;SDS011;2202;50.866;12.750;2024-03-22T13:02:40;15.20;;;12.57;;
4375;SDS011;2202;50.866;12.750;2024-03-22T13:05:06;16.67;;;11.70;;
4375;SDS011;2202;50.866;12.750;2024-03-22T13:07:33;19.43;;;13.87;;
4375;SDS011;2202;50.866;12.750;2024-03-22T13:10:00;21.20;;;14.17;;
4375;SDS011;2202;50.866;12.750;2024-03-22T13:12:28;16.03;;;12.87;;
4375;SDS011;2202;50.866;12.750;2024-03-22T13:14:56;20.03;;;13.43;;
4375;SDS011;2202;50.866;12.750;2024-03-22T13:17:22;19.87;;;14.73;;
4375;SDS011;2202;50.866;12.750;2024-03-22T13:19:48;21.70;;;14.60;;
4375;SDS011;2202;50.866;12.750;2024-03-22T13:22:15;20.50;;;14.10;;
4375;SDS011;2202;50.866;12.750;2024-03-22T13:24:43;20.50;;;14.37;;
4375;SDS011;2202;50.866;12.750;2024-03-22T13:27:12;21.80;;;14.53;;
4375;SDS011;2202;50.866;12.750;2024-03-22T13:29:38;27.57;;;14.43;;
4375;SDS011;2202;50.866;12.750;2024-03-22T13:32:05;20.40;;;14.33;;
4375;SDS011;2202;50.866;12.750;2024-03-22T13:34:32;19.90;;;14.30;;
4375;SDS011;2202;50.866;12.750;2024-03-22T13:36:59;20.27;;;13.53;;
4375;SDS011;2202;50.866;12.750;2024-03-22T13:39:25;21.10;;;13.90;;
4375;SDS011;2202;50.866;12.750;2024-03-22T13:41:54;19.47;;;13.83;;
4375;SDS011;2202;50.866;12.750;2024-03-22T13:44:21;19.20;;;12.80;;
4375;SDS011;2202;50.866;12.750;2024-03-22T13:46:48;21.73;;;13.80;;
4375;SDS011;2202;50.866;12.750;2024-03-22T13:49:15;20.60;;;13.70;;
4375;SDS011;2202;50.866;12.750;2024-03-22T13:51:45;18.33;;;14.10;;
4375;SDS011;2202;50.866;12.750;2024-03-22T13:54:12;21.93;;;15.00;;
4375;SDS011;2202;50.866;12.750;2024-03-22T13:56:39;22.03;;;14.57;;
4375;SDS011;2202;50.866;12.750;2024-03-22T13:59:04;19.20;;;13.50;;
4375;SDS011;2202;50.866;12.750;2024-03-22T14:01:34;24.30;;;16.60;;
4375;SDS011;2202;50.866;12.750;2024-03-22T14:04:01;22.23;;;14.90;;
4375;SDS011;2202;50.866;12.750;2024-03-22T14:06:28;20.40;;;15.70;;
4375;SDS011;2202;50.866;12.750;2024-03-22T14:08:55;19.80;;;13.60;;
4375;SDS011;2202;50.866;12.750;2024-03-22T14:11:25;21.60;;;15.80;;
4375;SDS011;2202;50.866;12.750;2024-03-22T14:13:51;24.40;;;15.50;;
4375;SDS011;2202;50.866;12.750;2024-03-22T14:16:18;20.53;;;16.07;;
4375;SDS011;2202;50.866;12.750;2024-03-22T14:18:45;22.50;;;16.13;;
4375;SDS011;2202;50.866;12.750;2024-03-22T14:21:13;21.47;;;16.00;;
4375;SDS011;2202;50.866;12.750;2024-03-22T14:23:43;24.57;;;15.67;;
4375;SDS011;2202;50.866;12.750;2024-03-22T14:26:11;18.83;;;14.60;;
4375;SDS011;2202;50.866;12.750;2024-03-22T14:28:36;23.67;;;16.83;;
4375;SDS011;2202;50.866;12.750;2024-03-22T14:31:04;23.00;;;16.30;;
4375;SDS011;2202;50.866;12.750;2024-03-22T14:33:33;20.30;;;14.93;;
4375;SDS011;2202;50.866;12.750;2024-03-22T14:36:01;20.47;;;14.93;;
4375;SDS011;2202;50.866;12.750;2024-03-22T14:38:27;25.50;;;15.07;;
4375;SDS011;2202;50.866;12.750;2024-03-22T14:40:54;21.10;;;15.23;;
4375;SDS011;2202;50.866;12.750;2024-03-22T14:43:20;16.67;;;13.97;;
4375;SDS011;2202;50.866;12.750;2024-03-22T14:45:47;20.60;;;14.13;;
4375;SDS011;2202;50.866;12.750;2024-03-22T14:48:42;19.03;;;14.30;;
4375;SDS011;2202;50.866;12.750;2024-03-22T14:51:12;20.27;;;16.07;;